Time;durP1;ratioP1;P1;durP2;ratioP2;P2;SDS_P1;SDS_P2;PMS_P1;PMS_P2;Temp;Humidity;BMP_temperature;BMP_pressure;BME280_temperature;BME280_humidity;BME280_pressure;Samples;Min_cycle;Max_cycle;Signal;HPM_P1;HPM_P2
2022/09/05 00:02:14;;;;;;;7.35;5.00;;;;;;;15.92;nan;101740.78;5030394;28;20033;-65
2022/09/05 00:04:55;;;;;;;5.47;4.60;;;;;;;15.57;nan;101687.31;5031222;28;20049;-66
2022/09/05 00:07:30;;;;;;;5.55;5.00;;;;;;;15.26;nan;101635.47;5030292;28;20033;-66
2022/09/05 00:10:34;;;;;;;6.10;5.05;;;;;;;15.82;nan;101750.06;5031186;28;20040;-65
2022/09/05 00:13:01;;;;;;;5.70;4.90;;;;;;;15.68;nan;101730.22;5018975;28;20405;-66
2022/09/05 00:15:45;;;;;;;5.88;5.28;;;;;;;15.75;nan;101741.47;5010445;28;20026;-68
2022/09/05 00:18:33;;;;;;;6.13;5.22;;;;;;;15.74;nan;101734.41;5030325;28;20559;-66
2022/09/05 00:21:24;;;;;;;6.93;5.32;;;;;;;15.39;nan;101687.13;5033771;28;20504;-67
2022/09/05 00:23:55;;;;;;;5.80;4.60;;;;;;;15.68;nan;101737.31;5035020;28;20361;-66
2022/09/05 00:26:23;;;;;;;5.45;4.63;;;;;;;15.63;nan;101720.69;5034917;28;20392;-69
2022/09/05 00:28:48;;;;;;;6.05;4.55;;;;;;;15.67;nan;101741.72;5034964;28;20033;-67
2022/09/05 00:31:32;;;;;;;6.75;5.38;;;;;;;15.68;nan;101727.56;5034616;28;20184;-66
2022/09/05 00:34:20;;;;;;;7.07;4.65;;;;;;;15.68;nan;101724.03;5030307;28;20038;-68
2022/09/05 00:36:53;;;;;;;5.53;4.50;;;;;;;15.64;nan;101731.25;5019674;28;20037;-66
2022/09/05 00:39:25;;;;;;;4.40;4.00;;;;;;;15.57;nan;101729.78;5007049;28;20033;-66
2022/09/05 00:41:54;;;;;;;5.88;4.38;;;;;;;15.56;nan;101717.41;5028293;28;20031;-66
2022/09/05 00:44:21;;;;;;;5.15;4.45;;;;;;;15.55;nan;101730.75;5033934;28;20120;-65
2022/09/05 00:47:10;;;;;;;5.45;4.30;;;;;;;15.44;nan;101701.09;5034631;28;20461;-67
2022/09/05 00:49:41;;;;;;;5.95;4.80;;;;;;;15.52;nan;101718.47;5034394;28;20108;-66
2022/09/05 00:52:17;;;;;;;5.80;4.90;;;;;;;15.49;nan;101723.03;5034570;28;20041;-66
2022/09/05 00:55:09;;;;;;;5.50;4.87;;;;;;;15.46;nan;101721.34;5032829;28;20038;-69
2022/09/05 00:58:28;;;;;;;5.70;4.97;;;;;;;15.41;nan;101715.31;5034315;28;20500;-66
2022/09/05 01:00:55;;;;;;;8.52;4.50;;;;;;;15.30;nan;101695.44;5002345;28;20025;-68
2022/09/05 01:03:44;;;;;;;5.30;4.50;;;;;;;15.33;nan;101712.09;5008374;28;20054;-65
2022/09/05 01:06:36;;;;;;;5.88;5.28;;;;;;;15.32;nan;101707.75;5047090;28;20437;-63
2022/09/05 01:09:28;;;;;;;7.22;4.80;;;;;;;15.02;nan;101669.09;5032897;28;20472;-66
2022/09/05 01:12:16;;;;;;;5.47;4.88;;;;;;;15.19;nan;101702.03;5032877;28;20029;-69
2022/09/05 01:15:07;;;;;;;6.20;5.35;;;;;;;14.90;nan;101656.31;5018218;28;20171;-65
2022/09/05 01:18:06;;;;;;;5.15;3.97;;;;;;;15.19;nan;101709.09;5034075;28;20033;-65
2022/09/05 01:20:58;;;;;;;5.60;4.63;;;;;;;15.13;nan;101712.00;5018021;28;20033;-66
2022/09/05 01:23:50;;;;;;;4.47;4.07;;;;;;;15.14;nan;101713.72;5034096;28;20048;-68
2022/09/05 01:26:27;;;;;;;5.97;4.10;;;;;;;15.12;nan;101715.53;5032544;28;20052;-67
2022/09/05 01:29:08;;;;;;;4.25;3.78;;;;;;;15.09;nan;101719.19;5034079;28;20029;-70
2022/09/05 01:31:44;;;;;;;8.07;4.43;;;;;;;14.74;nan;101653.34;5032218;28;20033;-65
2022/09/05 01:34:21;;;;;;;4.72;3.63;;;;;;;15.06;nan;101713.16;5033886;28;20289;-67
2022/09/05 01:36:52;;;;;;;4.95;4.47;;;;;;;15.05;nan;101714.94;5033477;28;20037;-66
2022/09/05 01:39:31;;;;;;;4.53;4.13;;;;;;;15.04;nan;101715.84;5032145;28;20033;-70
2022/09/05 01:42:22;;;;;;;6.50;4.70;;;;;;;15.06;nan;101705.19;5036528;28;20038;-67
2022/09/05 01:45:30;;;;;;;7.97;4.43;;;;;;;15.06;nan;101711.34;5019947;28;20103;-65
2022/09/05 01:48:03;;;;;;;5.60;5.07;;;;;;;15.07;nan;101706.91;5000857;28;20136;-68
2022/09/05 01:50:39;;;;;;;6.28;5.30;;;;;;;15.13;nan;101704.91;5017465;28;20052;-65
2022/09/05 01:53:24;;;;;;;5.70;4.82;;;;;;;14.90;nan;101662.47;5032270;28;20496;-65
2022/09/05 01:56:14;;;;;;;5.28;4.72;;;;;;;15.21;nan;101710.78;5033254;28;20030;-65
2022/09/05 01:58:57;;;;;;;7.03;5.43;;;;;;;15.02;nan;101663.81;5021850;28;20037;-65
2022/09/05 02:02:00;;;;;;;6.93;5.88;;;;;;;15.28;nan;101706.09;5031692;28;20037;-66
2022/09/05 02:04:44;;;;;;;7.50;5.85;;;;;;;15.29;nan;101704.31;5031914;28;20148;-67
2022/09/05 02:07:12;;;;;;;6.60;5.45;;;;;;;15.32;nan;101712.16;5033212;28;20497;-65
2022/09/05 02:09:49;;;;;;;6.65;5.93;;;;;;;15.11;nan;101676.72;5033074;28;20382;-67
2022/09/05 02:12:14;;;;;;;6.13;5.60;;;;;;;15.31;nan;101710.44;5032916;28;20029;-67
2022/09/05 02:14:44;;;;;;;9.27;6.03;;;;;;;15.31;nan;101735.19;5032906;28;20044;-68
2022/09/05 02:17:14;;;;;;;6.63;6.03;;;;;;;15.31;nan;101716.59;5032761;28;20366;-66
2022/09/05 02:19:46;;;;;;;7.57;6.57;;;;;;;15.15;nan;101683.63;5031850;28;20112;-66
2022/09/05 02:22:17;;;;;;;8.88;6.65;;;;;;;14.87;nan;101637.84;5031659;28;20047;-66
2022/09/05 02:24:46;;;;;;;7.30;6.38;;;;;;;15.19;nan;101698.50;5031185;28;20037;-66
2022/09/05 02:27:33;;;;;;;8.68;6.97;;;;;;;15.01;nan;101665.59;5041928;28;20043;-66
2022/09/05 02:30:08;;;;;;;7.20;6.45;;;;;;;15.29;nan;101706.97;5032894;28;20053;-66
2022/09/05 02:32:54;;;;;;;8.07;7.25;;;;;;;15.26;nan;101704.44;5016069;28;20037;-65
2022/09/05 02:35:40;;;;;;;7.53;6.75;;;;;;;15.25;nan;101708.00;5031181;28;20276;-66
2022/09/05 02:38:10;;;;;;;7.07;6.38;;;;;;;14.84;nan;101644.16;5034132;28;20595;-65
2022/09/05 02:40:36;;;;;;;8.73;7.07;;;;;;;15.20;nan;101709.06;5031119;28;20032;-66
2022/09/05 02:43:09;;;;;;;10.45;7.13;;;;;;;15.18;nan;101710.88;5031474;28;20038;-66
2022/09/05 02:46:04;;;;;;;8.60;7.03;;;;;;;15.15;nan;101700.41;5032252;28;20120;-67
2022/09/05 02:48:59;;;;;;;9.20;8.02;;;;;;;15.12;nan;101712.91;4995676;28;20105;-68
2022/09/05 02:51:34;;;;;;;8.88;7.28;;;;;;;14.77;nan;101652.41;5010657;28;20053;-68
2022/09/05 02:54:22;;;;;;;8.00;7.20;;;;;;;14.69;nan;101644.69;5014532;28;20033;-66
2022/09/05 02:57:00;;;;;;;10.13;8.27;;;;;;;15.02;nan;101723.00;5033853;28;20025;-66
2022/09/05 02:59:46;;;;;;;9.02;7.20;;;;;;;14.99;nan;101709.00;5032068;28;20044;-71
2022/09/05 03:02:32;;;;;;;8.70;7.55;;;;;;;14.96;nan;101707.31;5031931;28;20109;-65
2022/09/05 03:05:07;;;;;;;10.18;8.15;;;;;;;14.88;nan;101697.91;5031628;28;20067;-65
2022/09/05 03:07:57;;;;;;;16.48;8.68;;;;;;;14.95;nan;101710.88;5030980;28;20357;-66
2022/09/05 03:10:41;;;;;;;8.85;8.02;;;;;;;14.91;nan;101709.28;5030097;28;20055;-66
2022/09/05 03:13:30;;;;;;;10.52;7.93;;;;;;;14.88;nan;101708.53;5032059;28;20045;-65
2022/09/05 03:16:04;;;;;;;11.82;9.68;;;;;;;14.86;nan;101716.50;5030872;28;20473;-66
2022/09/05 03:19:07;;;;;;;9.70;8.55;;;;;;;14.87;nan;101705.00;5016296;28;20520;-69
2022/09/05 03:21:53;;;;;;;10.93;9.25;;;;;;;14.81;nan;101699.91;5031918;28;20385;-65
2022/09/05 03:24:46;;;;;;;10.93;9.57;;;;;;;14.46;nan;101626.13;5032073;28;20205;-67
2022/09/05 03:27:36;;;;;;;12.30;9.80;;;;;;;14.91;nan;101703.09;5031672;28;20171;-69
2022/09/05 03:30:07;;;;;;;11.95;10.80;;;;;;;14.60;nan;101647.69;5031590;28;20072;-67
2022/09/05 03:32:52;;;;;;;10.88;9.85;;;;;;;14.79;nan;101667.31;5016242;28;20052;-66
2022/09/05 03:35:44;;;;;;;12.15;10.82;;;;;;;15.05;nan;101704.34;5031613;28;20064;-68
2022/09/05 03:38:31;;;;;;;12.50;11.30;;;;;;;14.85;nan;101661.78;5030356;28;20037;-65
2022/09/05 03:41:08;;;;;;;14.07;11.20;;;;;;;15.12;nan;101723.50;5031884;28;20361;-67
2022/09/05 03:43:54;;;;;;;13.00;11.68;;;;;;;15.06;nan;101710.50;5031926;28;20034;-69
2022/09/05 03:46:44;;;;;;;14.27;12.82;;;;;;;15.19;nan;101701.16;5030134;28;20042;-67
2022/09/05 03:49:41;;;;;;;15.13;12.27;;;;;;;15.23;nan;101701.91;5031580;28;20037;-69
2022/09/05 03:52:30;;;;;;;13.80;11.07;;;;;;;15.25;nan;101705.34;5030954;28;20046;-65
2022/09/05 03:55:19;;;;;;;14.65;12.15;;;;;;;15.26;nan;101709.75;5034081;28;20044;-66
2022/09/05 03:57:53;;;;;;;14.23;11.85;;;;;;;15.24;nan;101704.47;5030670;28;20079;-65
2022/09/05 04:00:21;;;;;;;13.73;12.40;;;;;;;15.17;nan;101690.63;5034160;28;20037;-65
2022/09/05 04:03:04;;;;;;;14.70;12.35;;;;;;;14.87;nan;101644.03;5035517;28;20039;-64
2022/09/05 04:05:32;;;;;;;17.10;13.57;;;;;;;15.08;nan;101683.00;5033988;28;20045;-70
2022/09/05 04:08:06;;;;;;;15.63;12.52;;;;;;;15.13;nan;101712.84;5018598;28;20503;-66
2022/09/05 04:10:39;;;;;;;15.65;13.10;;;;;;;15.17;nan;101695.06;5018428;28;20204;-65
2022/09/05 04:13:07;;;;;;;15.98;13.52;;;;;;;14.86;nan;101636.13;5035272;28;20432;-66
2022/09/05 04:15:40;;;;;;;14.55;12.40;;;;;;;15.21;nan;101705.47;5035077;28;20068;-67
2022/09/05 04:18:17;;;;;;;14.85;13.40;;;;;;;15.16;nan;101682.69;5017353;28;20645;-66
2022/09/05 04:21:14;;;;;;;14.52;12.35;;;;;;;15.22;nan;101695.72;5035171;28;20033;-66
2022/09/05 04:24:13;;;;;;;13.98;12.45;;;;;;;15.23;nan;101692.16;5035027;28;20037;-66
2022/09/05 04:27:11;;;;;;;13.77;12.43;;;;;;;15.17;nan;101693.28;5018989;28;20500;-67
2022/09/05 04:29:55;;;;;;;14.70;13.30;;;;;;;15.20;nan;101695.81;5040637;28;20092;-67
2022/09/05 04:32:35;;;;;;;16.95;13.85;;;;;;;15.20;nan;101689.63;5034730;28;20045;-64
2022/09/05 04:35:18;;;;;;;15.40;13.80;;;;;;;15.03;nan;101676.97;5034857;28;20034;-66
2022/09/05 04:38:12;;;;;;;14.85;13.13;;;;;;;15.13;nan;101696.06;5033552;28;20026;-66
2022/09/05 04:40:41;;;;;;;14.75;12.82;;;;;;;15.14;nan;101706.63;5018371;28;20030;-66
2022/09/05 04:43:17;;;;;;;13.27;11.95;;;;;;;15.16;nan;101701.25;5034634;28;20029;-70
2022/09/05 04:45:48;;;;;;;15.48;12.85;;;;;;;14.80;nan;101637.22;5034542;28;20048;-65
2022/09/05 04:48:18;;;;;;;16.45;13.82;;;;;;;15.08;nan;101685.66;5033172;28;20084;-66
2022/09/05 04:51:07;;;;;;;15.02;12.90;;;;;;;14.94;nan;101664.09;5033298;28;20037;-66
2022/09/05 04:53:55;;;;;;;14.32;12.82;;;;;;;15.18;nan;101699.41;5033177;28;20048;-69
2022/09/05 04:56:25;;;;;;;16.52;12.65;;;;;;;14.80;nan;101645.16;5034409;28;20041;-66
2022/09/05 04:59:01;;;;;;;15.32;13.13;;;;;;;14.88;nan;101674.94;5021753;28;20470;-65
2022/09/05 05:01:32;;;;;;;15.45;12.82;;;;;;;14.75;nan;101646.25;4998395;28;20026;-66
2022/09/05 05:04:06;;;;;;;14.77;12.57;;;;;;;15.08;nan;101695.41;5024583;28;20482;-65
2022/09/05 05:06:39;;;;;;;15.27;13.65;;;;;;;15.15;nan;101704.81;5032787;28;20033;-66
2022/09/05 05:09:24;;;;;;;14.50;12.90;;;;;;;15.24;nan;101725.69;5024230;28;20033;-68
2022/09/05 05:11:56;;;;;;;13.70;12.30;;;;;;;14.98;nan;101663.03;5032812;28;20037;-67
2022/09/05 05:14:40;;;;;;;15.90;12.13;;;;;;;15.32;nan;101710.38;5033642;28;20042;-66
2022/09/05 05:17:22;;;;;;;14.45;12.95;;;;;;;15.41;nan;101722.44;5034055;28;20033;-66
2022/09/05 05:19:51;;;;;;;16.23;13.43;;;;;;;15.52;nan;101718.47;5007501;28;20117;-63
2022/09/05 05:22:17;;;;;;;18.50;12.65;;;;;;;15.56;nan;101712.09;5032021;28;20401;-66
2022/09/05 05:24:45;;;;;;;15.02;13.02;;;;;;;15.62;nan;101724.25;5032857;28;20068;-71
2022/09/05 05:27:17;;;;;;;14.13;12.73;;;;;;;15.30;nan;101659.16;5033874;28;20041;-66
2022/09/05 05:29:49;;;;;;;17.48;13.63;;;;;;;15.65;nan;101730.31;5033246;28;20071;-66
2022/09/05 05:32:21;;;;;;;16.10;12.85;;;;;;;15.68;nan;101722.25;5032399;28;20034;-66
2022/09/05 05:34:51;;;;;;;14.77;13.25;;;;;;;15.73;nan;101728.22;5033950;28;20048;-65
2022/09/05 05:37:28;;;;;;;15.35;13.77;;;;;;;15.36;nan;101647.44;5032608;28;20430;-67
2022/09/05 05:40:07;;;;;;;15.32;13.80;;;;;;;15.77;nan;101721.88;5033973;28;20036;-65
2022/09/05 05:42:32;;;;;;;17.38;14.30;;;;;;;15.54;nan;101668.84;5032656;28;20109;-66
2022/09/05 05:44:58;;;;;;;15.77;14.18;;;;;;;15.84;nan;101706.59;5032584;28;20120;-66
2022/09/05 05:47:37;;;;;;;15.88;14.23;;;;;;;16.01;nan;101732.44;5033607;28;20044;-68
2022/09/05 05:50:11;;;;;;;14.13;12.77;;;;;;;16.10;nan;101726.75;5032722;28;20056;-66
2022/09/05 05:52:41;;;;;;;14.38;12.55;;;;;;;16.13;nan;101723.97;5033657;28;20115;-67
2022/09/05 05:55:46;;;;;;;14.75;13.35;;;;;;;16.29;nan;101731.22;5032492;28;20298;-70
2022/09/05 05:58:27;;;;;;;17.80;13.18;;;;;;;16.40;nan;101729.94;5032536;28;20072;-69
2022/09/05 06:01:02;;;;;;;15.43;13.82;;;;;;;16.51;nan;101738.31;5032307;28;20040;-68
2022/09/05 06:03:27;;;;;;;20.30;13.48;;;;;;;16.62;nan;101744.94;5031760;28;20503;-68
2022/09/05 06:06:28;;;;;;;14.90;12.80;;;;;;;16.75;nan;101737.28;5033489;28;20037;-65
2022/09/05 06:09:11;;;;;;;15.23;13.00;;;;;;;16.87;nan;101740.25;5019950;28;20049;-65
2022/09/05 06:11:39;;;;;;;26.33;12.98;;;;;;;17.00;nan;101748.56;5033240;28;20523;-68
2022/09/05 06:14:32;;;;;;;14.75;13.25;;;;;;;17.12;nan;101756.00;5033024;28;20093;-67
2022/09/05 06:17:10;;;;;;;13.63;12.23;;;;;;;17.26;nan;101769.53;5031358;28;20128;-68
2022/09/05 06:20:16;;;;;;;13.02;11.73;;;;;;;17.45;nan;101754.44;5032830;28;20065;-70
2022/09/05 06:22:55;;;;;;;14.35;11.98;;;;;;;17.25;nan;101703.94;4991156;28;20038;-67
2022/09/05 06:25:55;;;;;;;16.08;12.63;;;;;;;17.71;nan;101771.91;4991356;28;20030;-69
2022/09/05 06:28:26;;;;;;;13.70;11.50;;;;;;;17.81;nan;101761.69;4948855;29;20364;-65
2022/09/05 06:31:15;;;;;;;15.63;12.77;;;;;;;17.92;nan;101757.56;5014585;28;20124;-66
2022/09/05 06:33:56;;;;;;;13.80;12.00;;;;;;;18.07;nan;101765.78;5033115;28;20064;-66
2022/09/05 06:36:34;;;;;;;14.40;12.45;;;;;;;18.18;nan;101771.44;5033095;28;20068;-65
2022/09/05 06:39:05;;;;;;;13.20;11.95;;;;;;;18.24;nan;101773.78;5032902;28;20363;-65
2022/09/05 06:41:40;;;;;;;17.58;12.25;;;;;;;18.32;nan;101783.13;5032666;28;20561;-67
2022/09/05 06:44:26;;;;;;;14.50;12.50;;;;;;;18.43;nan;101772.78;5031449;28;20038;-70
2022/09/05 06:46:54;;;;;;;15.45;11.90;;;;;;;18.48;nan;101777.88;5031490;28;20034;-66
2022/09/05 06:49:24;;;;;;;17.30;12.35;;;;;;;18.01;nan;101671.00;5029699;28;20405;-65
2022/09/05 06:52:08;;;;;;;17.88;12.38;;;;;;;18.79;nan;101796.78;5030286;28;20037;-66
2022/09/05 06:55:11;;;;;;;14.10;11.23;;;;;;;18.95;nan;101796.81;5031394;28;20098;-67
2022/09/05 06:57:58;;;;;;;16.05;12.40;;;;;;;19.07;nan;101796.19;5031111;28;20033;-65
2022/09/05 07:00:52;;;;;;;16.20;12.13;;;;;;;19.23;nan;101802.47;5031188;28;20037;-65
2022/09/05 07:03:24;;;;;;;19.67;12.80;;;;;;;19.33;nan;101787.66;5013023;28;20093;-70
2022/09/05 07:06:06;;;;;;;13.75;11.88;;;;;;;19.58;nan;101808.59;5029833;28;20099;-67
2022/09/05 07:08:50;;;;;;;12.88;11.38;;;;;;;19.78;nan;101821.72;5029532;28;20036;-64
2022/09/05 07:11:22;;;;;;;13.98;11.20;;;;;;;20.01;nan;101815.09;5030892;28;20033;-65
2022/09/05 07:14:22;;;;;;;13.57;10.50;;;;;;;19.90;nan;101758.72;5029553;28;20099;-66
2022/09/05 07:17:04;;;;;;;13.20;10.32;;;;;;;20.39;nan;101826.31;5029649;28;20136;-64
2022/09/05 07:19:34;;;;;;;12.90;10.90;;;;;;;20.53;nan;101813.00;5029560;28;20082;-66
2022/09/05 07:22:06;;;;;;;11.70;10.20;;;;;;;20.71;nan;101819.97;5030691;28;20585;-66
2022/09/05 07:24:33;;;;;;;11.23;10.10;;;;;;;20.82;nan;101824.66;5030128;28;20064;-65
2022/09/05 07:26:59;;;;;;;11.30;9.45;;;;;;;21.09;nan;101839.13;5027945;28;20038;-64
2022/09/05 07:29:31;;;;;;;10.98;9.05;;;;;;;21.38;nan;101845.38;5028700;28;20489;-65
2022/09/05 07:31:58;;;;;;;12.32;10.13;;;;;;;21.59;nan;101852.09;5013493;28;20485;-67
2022/09/05 07:34:28;;;;;;;13.00;9.70;;;;;;;21.72;nan;101861.06;5030447;28;20041;-67
2022/09/05 07:36:56;;;;;;;9.98;8.95;;;;;;;21.77;nan;101840.22;5029468;28;20060;-65
2022/09/05 07:39:24;;;;;;;11.63;8.73;;;;;;;;;;5030681;28;20045;-70
2022/09/05 07:41:53;;;;;;;10.30;9.30;;;;;;;;;;5030451;28;20392;-67
2022/09/05 07:44:22;;;;;;;9.75;8.75;;;;;;;;;;5030385;28;20546;-67
2022/09/05 07:46:48;;;;;;;9.68;8.63;;;;;;;;;;5030812;28;20029;-69
2022/09/05 07:49:16;;;;;;;8.40;7.47;;;;;;;;;;5030540;28;20033;-67
2022/09/05 07:52:04;;;;;;;8.35;7.40;;;;;;;;;;5030575;28;20041;-66
2022/09/05 07:54:32;;;;;;;9.02;7.90;;;;;;;;;;5030367;28;20333;-64
2022/09/05 07:57:05;;;;;;;7.85;6.72;;;;;;;;;;5030597;28;20042;-66
2022/09/05 07:59:31;;;;;;;8.77;7.53;;;;;;;;;;5030262;28;20496;-68
2022/09/05 08:01:58;;;;;;;10.90;7.45;;;;;;;;;;5030677;28;20034;-66
2022/09/05 08:04:34;;;;;;;11.98;7.38;;;;;;;;;;5030079;28;20061;-65
2022/09/05 08:07:07;;;;;;;7.68;7.00;;;;;;;;;;5030136;28;20056;-68
2022/09/05 08:09:37;;;;;;;7.68;6.90;;;;;;;;;;5030524;28;20059;-67
2022/09/05 08:12:32;;;;;;;7.47;6.60;;;;;;;23.79;nan;101852.44;5030325;28;20057;-65
2022/09/05 08:15:13;;;;;;;7.13;6.20;;;;;;;24.42;nan;101819.16;5038825;28;20421;-66
2022/09/05 08:17:59;;;;;;;;;;;;;;;25.60;nan;101877.34;5029451;28;20044;-66
2022/09/05 08:20:30;;;;;;;10.65;5.65;;;;;;;26.70;nan;101887.22;4998981;28;19977;-67
2022/09/05 08:23:15;;;;;;;6.80;5.47;;;;;;;27.30;nan;101851.41;5030065;28;20065;-66
2022/09/05 08:26:01;;;;;;;7.40;5.20;;;;;;;28.28;nan;101909.44;5029704;28;20068;-66
2022/09/05 08:28:54;;;;;;;8.50;4.82;;;;;;;28.54;nan;101857.50;5029404;28;20041;-67
2022/09/05 08:31:25;;;;;;;5.85;4.03;;;;;;;29.33;nan;101916.91;5030027;28;20029;-66
2022/09/05 08:33:52;;;;;;;9.52;3.72;;;;;;;29.74;nan;101917.50;5030032;28;20029;-65
2022/09/05 08:36:33;;;;;;;6.15;3.47;;;;;;;29.63;nan;101901.41;5029886;28;20176;-65
2022/09/05 08:38:59;;;;;;;3.33;2.63;;;;;;;29.00;nan;101904.59;5030097;28;20045;-65
2022/09/05 08:41:53;;;;;;;4.97;3.10;;;;;;;28.37;nan;101895.06;5031969;28;20048;-64
2022/09/05 08:44:41;;;;;;;3.88;3.05;;;;;;;28.27;nan;101907.75;5009869;28;20049;-65
2022/09/05 08:47:17;;;;;;;4.63;2.72;;;;;;;27.86;nan;101867.25;5032369;28;20459;-66
2022/09/05 08:49:59;;;;;;;4.03;2.65;;;;;;;27.98;nan;101900.50;5033433;28;20401;-68
2022/09/05 08:52:51;;;;;;;4.85;3.05;;;;;;;28.06;nan;101898.84;5032376;28;20030;-66
2022/09/05 08:55:27;;;;;;;4.90;2.30;;;;;;;27.76;nan;101896.09;5033385;28;20068;-66
2022/09/05 08:58:31;;;;;;;6.47;2.50;;;;;;;27.79;nan;101890.41;5033371;28;20029;-66
2022/09/05 09:01:16;;;;;;;5.30;2.63;;;;;;;28.64;nan;101888.16;5009896;28;20246;-67
2022/09/05 09:04:00;;;;;;;4.03;3.17;;;;;;;29.63;nan;101898.69;5031901;28;20065;-68
2022/09/05 09:06:35;;;;;;;5.85;2.28;;;;;;;30.13;nan;101902.78;5033057;28;20033;-65
2022/09/05 09:09:15;;;;;;;3.92;2.55;;;;;;;30.44;nan;101893.38;5033201;28;20121;-69
2022/09/05 09:12:10;;;;;;;4.25;2.03;;;;;;;30.96;nan;101880.84;5031705;28;20076;-67
2022/09/05 09:14:37;;;;;;;2.03;1.80;;;;;;;31.65;nan;101886.31;5032995;28;20029;-67
2022/09/05 09:17:20;;;;;;;4.45;2.00;;;;;;;31.39;nan;101729.47;5032952;28;20029;-66
2022/09/05 09:19:51;;;;;;;3.85;2.10;;;;;;;32.94;nan;101882.34;5031529;28;20029;-68
2022/09/05 09:22:32;;;;;;;4.55;2.40;;;;;;;32.84;nan;101893.41;5031964;28;20043;-68
2022/09/05 09:25:07;;;;;;;4.03;2.03;;;;;;;32.03;nan;101882.28;5031579;28;20030;-65
2022/09/05 09:27:36;;;;;;;4.20;1.98;;;;;;;31.95;nan;101871.31;5032537;28;20128;-66
2022/09/05 09:30:04;;;;;;;5.78;2.05;;;;;;;31.79;nan;101868.50;5032797;28;20053;-69
2022/09/05 09:32:30;;;;;;;2.45;1.73;;;;;;;31.18;nan;101855.00;5031140;28;20428;-68
2022/09/05 09:35:11;;;;;;;3.03;1.70;;;;;;;30.56;nan;101883.16;5031433;28;20037;-68
2022/09/05 09:37:55;;;;;;;;;;;;;;;30.36;nan;101871.50;5032942;28;20033;-67
2022/09/05 09:40:32;;;;;;;2.75;1.55;;;;;;;30.25;nan;101847.28;5032331;28;19913;-67
2022/09/05 09:43:20;;;;;;;3.50;1.63;;;;;;;30.99;nan;101872.38;5030764;28;20052;-66
2022/09/05 09:46:04;;;;;;;4.25;1.67;;;;;;;31.29;nan;101875.66;5031159;28;20033;-70
2022/09/05 09:48:48;;;;;;;1.88;1.35;;;;;;;31.34;nan;101876.88;5032090;28;20068;-64
2022/09/05 09:51:18;;;;;;;4.53;2.13;;;;;;;31.33;nan;101875.16;5030448;28;20034;-68
2022/09/05 09:54:02;;;;;;;3.70;1.90;;;;;;;31.26;nan;101871.41;5032333;28;20037;-67
2022/09/05 09:56:55;;;;;;;4.75;1.70;;;;;;;31.56;nan;101879.09;5030692;28;20341;-65
2022/09/05 09:59:27;;;;;;;4.25;1.77;;;;;;;31.92;nan;101876.22;5032031;28;20052;-65
2022/09/05 10:02:23;;;;;;;2.88;1.65;;;;;;;32.26;nan;101867.03;5031948;28;20025;-67
2022/09/05 10:05:09;;;;;;;4.60;1.70;;;;;;;32.08;nan;101866.28;5031672;28;20136;-66
2022/09/05 10:07:51;;;;;;;3.95;1.80;;;;;;;31.77;nan;101865.09;5032107;28;20046;-66
2022/09/05 10:10:48;;;;;;;2.70;1.67;;;;;;;31.30;nan;101858.31;5031735;28;20037;-65
2022/09/05 10:13:43;;;;;;;2.35;1.52;;;;;;;31.27;nan;101845.88;5030390;28;20029;-65
2022/09/05 10:16:14;;;;;;;6.82;1.60;;;;;;;31.66;nan;101849.91;5032030;28;20460;-67
2022/09/05 10:19:03;;;;;;;8.05;1.50;;;;;;;32.17;nan;101848.94;5032105;28;20033;-66
2022/09/05 10:21:47;;;;;;;5.35;1.80;;;;;;;32.66;nan;101839.03;5030425;28;20034;-65
2022/09/05 10:24:44;;;;;;;1.90;1.40;;;;;;;32.81;nan;101844.66;5030210;28;20037;-66
2022/09/05 10:27:22;;;;;;;3.28;1.63;;;;;;;32.60;nan;101847.91;5030591;28;20056;-64
2022/09/05 10:30:23;;;;;;;5.22;1.90;;;;;;;32.50;nan;101835.41;5031715;28;20396;-66
2022/09/05 10:33:16;;;;;;;2.85;1.75;;;;;;;32.37;nan;101844.06;5030898;28;20060;-66
2022/09/05 10:35:43;;;;;;;1.75;1.40;;;;;;;32.35;nan;101839.81;5030378;28;20044;-65
2022/09/05 10:38:13;;;;;;;6.20;1.70;;;;;;;32.25;nan;101802.66;5031275;28;20029;-66
2022/09/05 10:40:47;;;;;;;6.63;1.65;;;;;;;32.29;nan;101835.88;5031362;28;20029;-67
2022/09/05 10:43:22;;;;;;;4.30;1.60;;;;;;;32.19;nan;101827.00;5031502;28;20148;-67
2022/09/05 10:45:59;;;;;;;3.25;1.70;;;;;;;32.35;nan;101837.06;5030145;28;20041;-66
2022/09/05 10:48:47;;;;;;;6.15;1.50;;;;;;;32.45;nan;101835.94;5030009;28;20034;-65
2022/09/05 10:51:37;;;;;;;5.10;1.70;;;;;;;32.67;nan;101807.16;5029927;28;20091;-67
2022/09/05 10:54:39;;;;;;;6.65;1.73;;;;;;;33.29;nan;101841.94;5029824;28;20033;-66
2022/09/05 10:57:07;;;;;;;2.22;1.70;;;;;;;32.66;nan;101764.59;5030925;28;20044;-66
2022/09/05 10:59:55;;;;;;;6.57;1.70;;;;;;;33.12;nan;101843.00;5031229;28;20030;-66
2022/09/05 11:02:21;;;;;;;4.82;1.65;;;;;;;33.55;nan;101841.72;5030410;28;20033;-66
2022/09/05 11:04:53;;;;;;;3.38;1.77;;;;;;;33.74;nan;101835.88;5029425;28;20053;-67
2022/09/05 11:07:46;;;;;;;6.38;1.58;;;;;;;33.90;nan;101841.28;5030700;28;20388;-66
2022/09/05 11:10:20;;;;;;;3.83;1.80;;;;;;;34.10;nan;101839.00;5029655;28;20052;-65
2022/09/05 11:13:04;;;;;;;6.75;2.40;;;;;;;34.50;nan;101841.47;5013233;28;20037;-66
2022/09/05 11:15:45;;;;;;;2.58;1.40;;;;;;;35.16;nan;101837.25;5030897;28;20030;-67
2022/09/05 11:18:16;;;;;;;7.72;2.15;;;;;;;36.15;nan;101835.94;5029660;28;20029;-69
2022/09/05 11:21:13;;;;;;;2.95;1.70;;;;;;;37.38;nan;101843.72;5031244;28;20040;-67
2022/09/05 11:23:44;;;;;;;6.80;1.40;;;;;;;38.01;nan;101839.03;5029514;28;20044;-68
2022/09/05 11:26:25;;;;;;;5.47;1.52;;;;;;;37.84;nan;101834.91;5029169;28;20045;-69
2022/09/05 11:29:10;;;;;;;3.97;1.25;;;;;;;37.95;nan;101823.38;5030530;28;20221;-66
2022/09/05 11:32:02;;;;;;;5.50;1.60;;;;;;;38.02;nan;101838.00;5030868;28;20036;-65
2022/09/05 11:34:46;;;;;;;3.53;1.77;;;;;;;38.06;nan;101831.91;5029313;28;20037;-67
2022/09/05 11:37:26;;;;;;;3.22;1.88;;;;;;;37.75;nan;101774.66;5029296;28;20396;-68
2022/09/05 11:40:10;;;;;;;3.35;1.80;;;;;;;38.21;nan;101829.81;5030579;28;20033;-68
2022/09/05 11:43:12;;;;;;;3.08;1.73;;;;;;;38.06;nan;101814.56;5030414;28;20116;-67
2022/09/05 11:45:44;;;;;;;4.15;1.63;;;;;;;38.16;nan;101817.75;5029970;28;20076;-67
2022/09/05 11:48:47;;;;;;;2.13;1.35;;;;;;;38.26;nan;101826.47;5030535;28;20025;-66
2022/09/05 11:51:47;;;;;;;5.50;2.00;;;;;;;38.25;nan;101776.09;5030551;28;20036;-66
2022/09/05 11:54:36;;;;;;;3.87;1.57;;;;;;;38.94;nan;101819.00;5030353;28;20029;-68
2022/09/05 11:57:14;;;;;;;7.78;2.17;;;;;;;39.35;nan;101814.94;5030323;28;20044;-67
2022/09/05 12:00:10;;;;;;;4.40;1.95;;;;;;;39.70;nan;101806.41;5030467;28;20037;-66
2022/09/05 12:03:04;;;;;;;3.97;1.30;;;;;;;40.01;nan;101806.47;5030248;28;20041;-67
2022/09/05 12:05:31;;;;;;;2.30;1.75;;;;;;;40.30;nan;101807.81;5029655;28;20089;-64
2022/09/05 12:08:16;;;;;;;3.30;1.70;;;;;;;40.50;nan;101807.69;5030328;28;20063;-65
2022/09/05 12:11:19;;;;;;;2.78;1.50;;;;;;;40.93;nan;101801.22;5030013;28;20575;-64
2022/09/05 12:13:53;;;;;;;4.60;1.48;;;;;;;40.71;nan;101771.47;5031217;28;20369;-66
2022/09/05 12:16:40;;;;;;;2.55;1.00;;;;;;;40.82;nan;101798.34;5034146;28;20431;-67
2022/09/05 12:19:15;;;;;;;6.65;2.38;;;;;;;40.89;nan;101804.66;5033729;28;20029;-65
2022/09/05 12:22:17;;;;;;;1.10;0.98;;;;;;;41.11;nan;101803.19;5033137;28;20026;-67
2022/09/05 12:25:03;;;;;;;1.80;1.10;;;;;;;40.98;nan;101804.16;5032975;28;20045;-66
2022/09/05 12:27:31;;;;;;;2.08;1.30;;;;;;;41.03;nan;101803.50;5032594;28;20064;-66
2022/09/05 12:29:58;;;;;;;5.75;1.70;;;;;;;40.94;nan;101804.84;5031554;28;20033;-67
2022/09/05 12:32:26;;;;;;;1.80;1.13;;;;;;;40.90;nan;101787.84;5031271;28;20534;-65
2022/09/05 12:34:56;;;;;;;3.92;1.60;;;;;;;41.04;nan;101793.28;5031572;28;20473;-67
2022/09/05 12:37:21;;;;;;;5.20;1.40;;;;;;;40.98;nan;101795.06;5031430;28;20033;-65
2022/09/05 12:39:52;;;;;;;5.05;1.80;;;;;;;40.69;nan;101790.19;5032551;28;20088;-64
2022/09/05 12:42:27;;;;;;;3.83;1.83;;;;;;;40.46;nan;101766.75;5032552;28;20033;-65
2022/09/05 12:45:08;;;;;;;5.18;1.25;;;;;;;41.05;nan;101789.44;5031132;28;20049;-64
2022/09/05 12:47:57;;;;;;;1.73;1.40;;;;;;;41.18;nan;101789.31;5032279;28;20090;-66